Time;durP1;ratioP1;P1;durP2;ratioP2;P2;SDS_P1;SDS_P2;PMS_P1;PMS_P2;Temp;Humidity;BMP_temperature;BMP_pressure;BME280_temperature;BME280_humidity;BME280_pressure;Samples;Min_cycle;Max_cycle;Signal;HPM_P1;HPM_P2
2021/06/25 00:02:08;;;;;;;3.08;2.33;;;17.00;99.90;;;;;;5051416;28;20036;-64
2021/06/25 00:04:34;;;;;;;2.72;2.53;;;17.00;99.90;;;;;;5051066;28;20110;-64
2021/06/25 00:06:59;;;;;;;2.38;2.17;;;16.90;99.90;;;;;;5049762;28;21020;-64
2021/06/25 00:09:25;;;;;;;2.70;2.50;;;16.90;99.90;;;;;;5050410;28;20029;-64
2021/06/25 00:11:52;;;;;;;3.15;2.40;;;16.80;99.90;;;;;;5049918;28;20032;-65
2021/06/25 00:14:20;;;;;;;2.20;2.00;;;16.80;99.90;;;;;;5050516;28;20083;-64
2021/06/25 00:16:47;;;;;;;3.40;1.83;;;16.70;99.90;;;;;;5047165;28;20033;-65
2021/06/25 00:19:12;;;;;;;2.20;2.10;;;16.70;99.90;;;;;;5050599;28;20072;-65
2021/06/25 00:21:38;;;;;;;2.88;2.10;;;16.60;99.90;;;;;;5050068;28;20443;-65
2021/06/25 00:24:04;;;;;;;2.08;1.95;;;16.50;99.90;;;;;;5050066;28;20143;-64
2021/06/25 00:26:30;;;;;;;3.38;2.15;;;16.50;99.90;;;;;;5051739;28;20386;-65
2021/06/25 00:28:55;;;;;;;2.42;2.20;;;16.50;99.90;;;;;;5050712;28;20025;-65
2021/06/25 00:31:21;;;;;;;2.13;1.92;;;16.40;99.90;;;;;;5051840;28;20029;-64
2021/06/25 00:33:46;;;;;;;5.10;2.67;;;16.30;99.90;;;;;;5050377;28;20029;-64
2021/06/25 00:36:12;;;;;;;3.40;2.08;;;16.30;99.90;;;;;;5051196;28;20087;-64
2021/06/25 00:38:38;;;;;;;2.17;2.00;;;16.30;99.90;;;;;;5050670;28;20036;-64
2021/06/25 00:41:03;;;;;;;2.25;2.05;;;16.30;99.90;;;;;;5050656;28;20024;-64
2021/06/25 00:43:29;;;;;;;2.28;1.95;;;16.30;99.90;;;;;;5051745;28;20037;-64
2021/06/25 00:45:54;;;;;;;2.90;2.00;;;16.30;99.90;;;;;;5050267;28;20032;-64
2021/06/25 00:48:20;;;;;;;2.38;2.03;;;16.30;99.90;;;;;;5051236;28;20108;-64
2021/06/25 00:50:46;;;;;;;3.50;1.73;;;16.30;99.90;;;;;;5050317;28;20083;-64
2021/06/25 00:53:12;;;;;;;2.30;2.10;;;16.30;99.90;;;;;;5051228;28;20040;-64
2021/06/25 00:55:42;;;;;;;1.80;1.70;;;16.30;99.90;;;;;;5050896;28;20049;-64
2021/06/25 00:58:17;;;;;;;1.75;1.65;;;16.30;99.90;;;;;;5050893;28;20087;-64
2021/06/25 01:00:44;;;;;;;1.73;1.35;;;16.30;99.90;;;;;;5050055;28;20029;-64
2021/06/25 01:03:11;;;;;;;2.40;1.50;;;16.30;99.90;;;;;;5049909;28;20053;-64
2021/06/25 01:05:37;;;;;;;4.32;1.40;;;16.30;99.90;;;;;;5050697;28;20044;-64
2021/06/25 01:08:04;;;;;;;1.27;1.17;;;16.30;99.90;;;;;;5048746;28;20047;-64
2021/06/25 01:10:30;;;;;;;2.05;1.23;;;16.30;99.90;;;;;;5051124;28;20071;-64
2021/06/25 01:12:56;;;;;;;1.80;1.25;;;16.20;99.90;;;;;;5049938;28;20044;-65
2021/06/25 01:15:22;;;;;;;1.50;1.40;;;16.20;99.90;;;;;;5050835;28;20041;-64
2021/06/25 01:17:48;;;;;;;1.38;1.30;;;16.10;99.90;;;;;;5049970;28;20102;-64
2021/06/25 01:20:28;;;;;;;3.95;1.52;;;16.00;99.90;;;;;;5050577;28;20068;-64
2021/06/25 01:22:55;;;;;;;1.50;1.40;;;15.90;99.90;;;;;;5048835;28;20025;-64
2021/06/25 01:25:32;;;;;;;1.45;1.35;;;15.80;99.90;;;;;;5050694;28;20033;-64
2021/06/25 01:28:01;;;;;;;1.40;1.30;;;15.80;99.90;;;;;;5049701;28;20476;-64
2021/06/25 01:30:32;;;;;;;1.45;1.30;;;15.70;99.90;;;;;;5050691;28;20466;-64
2021/06/25 01:32:59;;;;;;;1.67;1.58;;;15.70;99.90;;;;;;5050073;28;20087;-64
2021/06/25 01:35:26;;;;;;;1.40;1.30;;;15.70;99.90;;;;;;5050726;28;20048;-64
2021/06/25 01:37:51;;;;;;;1.63;1.52;;;15.70;99.90;;;;;;5050111;28;20024;-65
2021/06/25 01:40:19;;;;;;;1.40;1.30;;;15.70;99.90;;;;;;5051019;28;20033;-65
2021/06/25 01:42:46;;;;;;;1.48;1.38;;;15.80;99.90;;;;;;5050396;28;20408;-64
2021/06/25 01:45:33;;;;;;;1.13;1.13;;;15.80;99.90;;;;;;5051049;28;20069;-64
2021/06/25 01:48:00;;;;;;;1.30;1.20;;;15.80;99.90;;;;;;5050237;28;20028;-64
2021/06/25 01:50:36;;;;;;;2.28;1.10;;;15.80;99.90;;;;;;5054718;28;20059;-64
2021/06/25 01:53:03;;;;;;;1.35;1.23;;;15.80;99.90;;;;;;5053838;28;20029;-64
2021/06/25 01:55:39;;;;;;;1.17;1.08;;;15.80;99.90;;;;;;5054407;28;20506;-64
2021/06/25 01:58:09;;;;;;;1.00;0.85;;;15.80;99.90;;;;;;5053565;28;20634;-64
2021/06/25 02:00:36;;;;;;;2.38;0.95;;;15.80;99.90;;;;;;5054399;28;20040;-64
2021/06/25 02:03:02;;;;;;;1.13;1.02;;;15.90;99.90;;;;;;5053519;28;20044;-64
2021/06/25 02:05:28;;;;;;;1.13;1.02;;;15.80;99.90;;;;;;5054813;28;20040;-64
2021/06/25 02:07:53;;;;;;;2.13;0.75;;;15.80;99.90;;;;;;5053458;28;20025;-64
2021/06/25 02:10:19;;;;;;;0.93;0.88;;;15.80;99.90;;;;;;5053934;28;20417;-64
2021/06/25 02:12:44;;;;;;;0.85;0.85;;;15.80;99.90;;;;;;5054105;28;20044;-64
2021/06/25 02:15:11;;;;;;;2.15;1.30;;;15.80;99.90;;;;;;5053299;28;20037;-64
2021/06/25 02:17:36;;;;;;;0.80;0.80;;;15.90;99.90;;;;;;5054745;28;20036;-64
2021/06/25 02:20:04;;;;;;;0.88;0.88;;;15.90;99.90;;;;;;5053035;28;20028;-64
2021/06/25 02:22:30;;;;;;;1.05;0.90;;;15.90;99.90;;;;;;5054411;28;20078;-64
2021/06/25 02:24:56;;;;;;;0.90;0.90;;;15.90;99.90;;;;;;5052657;28;20025;-65
2021/06/25 02:27:22;;;;;;;1.33;0.90;;;15.90;99.90;;;;;;5053627;28;20120;-64
2021/06/25 02:29:48;;;;;;;1.10;1.00;;;15.90;99.90;;;;;;5053219;28;20029;-64
2021/06/25 02:32:13;;;;;;;1.58;1.10;;;15.90;99.90;;;;;;5054410;28;20104;-65
2021/06/25 02:34:39;;;;;;;1.48;1.33;;;15.80;99.90;;;;;;5054166;28;20074;-65
2021/06/25 02:37:05;;;;;;;1.02;1.02;;;15.80;99.90;;;;;;5053176;28;20568;-64
2021/06/25 02:39:30;;;;;;;1.00;0.90;;;15.70;99.90;;;;;;5054198;28;20052;-64
2021/06/25 02:41:56;;;;;;;1.48;1.30;;;15.70;99.90;;;;;;5052819;28;20363;-64
2021/06/25 02:44:22;;;;;;;1.90;1.10;;;15.60;99.90;;;;;;5053361;28;20039;-64
2021/06/25 02:46:48;;;;;;;2.30;1.40;;;15.50;99.90;;;;;;5052830;28;21444;-64
2021/06/25 02:49:13;;;;;;;1.73;1.60;;;15.40;99.90;;;;;;5052019;28;20021;-64
2021/06/25 02:51:39;;;;;;;1.98;1.80;;;15.40;99.90;;;;;;5052209;28;20363;-64
2021/06/25 02:54:05;;;;;;;1.58;1.48;;;15.40;99.90;;;;;;5051242;28;20416;-64
2021/06/25 02:56:30;;;;;;;2.42;1.70;;;15.40;99.90;;;;;;5051376;28;20081;-64
2021/06/25 02:58:56;;;;;;;1.73;1.63;;;15.40;99.90;;;;;;5051395;28;20035;-64
2021/06/25 03:01:22;;;;;;;2.00;1.80;;;15.30;99.90;;;;;;5050442;28;20131;-64
2021/06/25 03:03:47;;;;;;;1.60;1.50;;;15.30;99.90;;;;;;5052070;28;20025;-64
2021/06/25 03:06:13;;;;;;;1.67;1.58;;;15.30;99.90;;;;;;5051354;28;20035;-64
2021/06/25 03:08:39;;;;;;;1.95;1.80;;;15.30;99.90;;;;;;5051627;28;20047;-64
2021/06/25 03:11:05;;;;;;;1.85;1.50;;;15.40;99.90;;;;;;5051179;28;20032;-65
2021/06/25 03:13:30;;;;;;;2.13;1.60;;;15.30;99.90;;;;;;5051952;28;20021;-64
2021/06/25 03:15:56;;;;;;;1.95;1.77;;;15.40;99.90;;;;;;5051067;28;20111;-65
2021/06/25 03:18:22;;;;;;;3.85;2.22;;;15.40;99.90;;;;;;5051983;28;20462;-64
2021/06/25 03:20:47;;;;;;;1.70;1.60;;;15.40;99.90;;;;;;5051513;28;20454;-66
2021/06/25 03:23:13;;;;;;;5.85;2.10;;;15.40;99.90;;;;;;5051241;28;20032;-64
2021/06/25 03:25:39;;;;;;;4.93;2.10;;;15.40;99.90;;;;;;5051676;28;20044;-64
2021/06/25 03:28:05;;;;;;;2.00;1.90;;;15.40;99.90;;;;;;5050766;28;20027;-64
2021/06/25 03:30:32;;;;;;;2.22;2.08;;;15.40;99.90;;;;;;5050998;28;20033;-64
2021/06/25 03:32:58;;;;;;;3.10;1.73;;;15.40;99.90;;;;;;5050971;28;20029;-64
2021/06/25 03:35:24;;;;;;;2.17;1.65;;;15.40;99.90;;;;;;5051842;28;20044;-64
2021/06/25 03:37:49;;;;;;;1.77;1.67;;;15.50;99.90;;;;;;5050927;28;20019;-64
2021/06/25 03:40:16;;;;;;;2.40;1.52;;;15.50;99.90;;;;;;5051294;28;20025;-64
2021/06/25 03:42:43;;;;;;;2.75;1.73;;;15.50;99.90;;;;;;5051509;28;20017;-64
2021/06/25 03:45:11;;;;;;;1.92;1.40;;;15.50;99.90;;;;;;5049056;28;20662;-64
2021/06/25 03:47:37;;;;;;;1.50;1.40;;;15.50;99.90;;;;;;5050866;28;20100;-64
2021/06/25 03:50:04;;;;;;;2.20;1.40;;;15.60;99.90;;;;;;5050620;28;20017;-65
2021/06/25 03:52:30;;;;;;;1.50;1.40;;;15.60;99.90;;;;;;5051317;28;20096;-64
2021/06/25 03:54:56;;;;;;;1.23;1.20;;;15.60;99.90;;;;;;5050285;28;20147;-65
2021/06/25 03:57:21;;;;;;;1.70;1.60;;;15.60;99.90;;;;;;5051037;28;20037;-64
2021/06/25 03:59:47;;;;;;;1.50;1.35;;;15.60;99.90;;;;;;5050440;28;20033;-66
2021/06/25 04:02:13;;;;;;;1.60;1.50;;;15.60;99.90;;;;;;5050382;28;20025;-64
2021/06/25 04:04:40;;;;;;;1.95;1.75;;;15.50;99.90;;;;;;5050631;28;20462;-64
2021/06/25 04:07:06;;;;;;;1.67;1.42;;;15.50;99.90;;;;;;5050376;28;20037;-64
2021/06/25 04:09:33;;;;;;;2.05;1.25;;;15.40;99.90;;;;;;5050849;28;20056;-64
2021/06/25 04:11:59;;;;;;;2.40;1.50;;;15.50;99.90;;;;;;5050167;28;20394;-64
2021/06/25 04:14:25;;;;;;;1.52;1.42;;;15.40;99.90;;;;;;5051588;28;20028;-64
2021/06/25 04:16:51;;;;;;;1.23;1.17;;;15.40;99.90;;;;;;5050674;28;20390;-64
2021/06/25 04:19:17;;;;;;;1.17;1.13;;;15.40;99.90;;;;;;5051310;28;20040;-63
2021/06/25 04:21:42;;;;;;;1.48;1.40;;;15.40;99.90;;;;;;5052066;28;20053;-64
2021/06/25 04:24:08;;;;;;;2.25;1.45;;;15.40;99.90;;;;;;5051081;28;20106;-64
2021/06/25 04:26:35;;;;;;;1.75;1.58;;;15.40;99.90;;;;;;5051916;28;20037;-64
2021/06/25 04:29:03;;;;;;;1.90;1.67;;;15.40;99.90;;;;;;5050555;28;20043;-64
2021/06/25 04:31:29;;;;;;;1.45;1.33;;;15.40;99.90;;;;;;5051350;28;20108;-64
2021/06/25 04:33:55;;;;;;;1.58;1.48;;;15.30;99.90;;;;;;5050977;28;20023;-64
2021/06/25 04:36:21;;;;;;;1.50;1.40;;;15.30;99.90;;;;;;5051754;28;20032;-64
2021/06/25 04:38:47;;;;;;;1.73;1.52;;;15.30;99.90;;;;;;5052019;28;20021;-64
2021/06/25 04:41:12;;;;;;;1.85;1.73;;;15.30;99.90;;;;;;5050545;28;20040;-64
2021/06/25 04:43:38;;;;;;;1.85;1.70;;;15.30;99.90;;;;;;5051713;28;20029;-65
2021/06/25 04:46:04;;;;;;;1.50;1.40;;;15.30;99.90;;;;;;5050052;28;20029;-65
2021/06/25 04:48:30;;;;;;;1.70;1.60;;;15.20;99.90;;;;;;5051180;28;20527;-64
2021/06/25 04:50:56;;;;;;;2.53;1.48;;;15.30;99.90;;;;;;5050715;28;20040;-65
2021/06/25 04:53:21;;;;;;;2.10;1.60;;;15.30;99.90;;;;;;5042947;28;20025;-64
2021/06/25 04:55:47;;;;;;;4.05;1.40;;;15.30;99.90;;;;;;5051487;28;20047;-65
2021/06/25 04:58:16;;;;;;;1.58;1.48;;;15.40;99.90;;;;;;5050403;28;20025;-64
2021/06/25 05:00:43;;;;;;;2.88;1.60;;;15.40;99.90;;;;;;5051084;28;20025;-64
2021/06/25 05:03:09;;;;;;;2.63;1.55;;;15.30;99.90;;;;;;5050520;28;20025;-64
2021/06/25 05:05:36;;;;;;;1.60;1.40;;;15.40;99.90;;;;;;5051500;28;20045;-64
2021/06/25 05:08:04;;;;;;;3.25;1.50;;;15.40;99.90;;;;;;5050069;28;20494;-65
2021/06/25 05:10:30;;;;;;;1.67;1.58;;;15.50;99.90;;;;;;5050725;28;20060;-64
2021/06/25 05:12:56;;;;;;;2.28;1.60;;;15.50;99.90;;;;;;5050390;28;20025;-64
2021/06/25 05:15:22;;;;;;;1.63;1.52;;;15.50;99.90;;;;;;5050648;28;20048;-64
2021/06/25 05:17:50;;;;;;;2.72;1.70;;;15.50;99.90;;;;;;5050498;28;20029;-64
2021/06/25 05:20:20;;;;;;;1.50;1.40;;;15.50;99.90;;;;;;5050536;28;20051;-64
2021/06/25 05:22:46;;;;;;;2.72;1.30;;;15.60;99.90;;;;;;5050986;28;20020;-64
2021/06/25 05:25:12;;;;;;;1.52;1.42;;;15.60;99.90;;;;;;5053840;28;20217;-64
2021/06/25 05:27:38;;;;;;;1.90;1.77;;;15.60;99.90;;;;;;5055310;28;20029;-64
2021/06/25 05:30:06;;;;;;;1.65;1.33;;;15.70;99.90;;;;;;5053450;28;20040;-64
2021/06/25 05:32:32;;;;;;;2.05;1.50;;;15.80;99.90;;;;;;5054860;28;20131;-64
2021/06/25 05:34:58;;;;;;;1.48;1.38;;;15.80;99.90;;;;;;5054015;28;20429;-65
2021/06/25 05:37:24;;;;;;;2.03;1.45;;;15.90;99.90;;;;;;5054243;28;20037;-64
2021/06/25 05:39:49;;;;;;;2.72;1.20;;;15.90;99.90;;;;;;5054714;28;20047;-65
2021/06/25 05:42:15;;;;;;;3.35;1.50;;;15.90;99.90;;;;;;5054823;28;20056;-65
2021/06/25 05:44:41;;;;;;;1.60;1.50;;;16.00;99.90;;;;;;5054558;28;20037;-64
2021/06/25 05:47:07;;;;;;;2.08;1.38;;;15.90;99.90;;;;;;5053767;28;20029;-64
2021/06/25 05:49:33;;;;;;;1.98;1.38;;;15.90;99.90;;;;;;5054450;28;20053;-64
2021/06/25 05:51:59;;;;;;;1.85;1.50;;;15.90;99.90;;;;;;5053390;28;20025;-65
2021/06/25 05:54:25;;;;;;;1.42;1.33;;;15.90;99.90;;;;;;5054466;28;20053;-64
2021/06/25 05:56:51;;;;;;;7.25;1.58;;;16.00;99.90;;;;;;5054549;28;20481;-64
2021/06/25 05:59:17;;;;;;;1.20;1.10;;;16.00;99.90;;;;;;5053833;28;20033;-64
2021/06/25 06:01:42;;;;;;;2.08;1.58;;;16.10;99.90;;;;;;5054591;28;20410;-64
2021/06/25 06:04:08;;;;;;;2.20;1.40;;;16.10;99.90;;;;;;5053254;28;20421;-64
2021/06/25 06:06:34;;;;;;;1.85;1.38;;;16.10;99.90;;;;;;5054291;28;20086;-64
2021/06/25 06:09:02;;;;;;;1.92;1.25;;;16.10;99.90;;;;;;5053580;28;20096;-63
2021/06/25 06:11:27;;;;;;;3.05;1.00;;;16.10;99.90;;;;;;5053942;28;20386;-65
2021/06/25 06:13:53;;;;;;;1.50;1.13;;;16.00;99.90;;;;;;5053740;28;20025;-66
2021/06/25 06:16:19;;;;;;;1.60;1.20;;;15.90;99.90;;;;;;5054191;28;20359;-65
2021/06/25 06:18:49;;;;;;;2.08;1.40;;;15.80;99.90;;;;;;5053667;28;20562;-67
2021/06/25 06:21:17;;;;;;;3.42;1.73;;;15.80;99.90;;;;;;5053486;28;20065;-65
2021/06/25 06:34:43;;;;;;;2.50;1.73;;;16.20;99.90;;;;;;5052883;28;20107;-65
2021/06/25 06:37:09;;;;;;;1.80;1.60;;;16.20;99.90;;;;;;5052997;28;20040;-74
2021/06/25 06:39:34;;;;;;;1.50;1.20;;;16.30;99.90;;;;;;5053998;28;20454;-73
2021/06/25 06:42:00;;;;;;;2.05;1.60;;;16.40;99.90;;;;;;5051830;28;20029;-73
2021/06/25 06:44:26;;;;;;;2.40;1.83;;;16.40;99.90;;;;;;5053750;28;20048;-76
2021/06/25 06:46:51;;;;;;;2.83;1.40;;;16.40;99.90;;;;;;5054194;28;20037;-75
2021/06/25 06:49:17;;;;;;;1.88;1.65;;;16.40;99.90;;;;;;5052629;28;20025;-75
2021/06/25 06:51:43;;;;;;;2.05;1.60;;;16.40;99.90;;;;;;5053602;28;20484;-75
2021/06/25 06:54:10;;;;;;;1.40;1.30;;;16.40;99.90;;;;;;5051029;28;20106;-75
2021/06/25 06:56:35;;;;;;;3.03;1.42;;;16.40;99.90;;;;;;5053724;28;20039;-65
2021/06/25 06:59:01;;;;;;;4.00;1.58;;;16.30;99.90;;;;;;5052077;28;20401;-65
2021/06/25 07:01:29;;;;;;;2.50;1.60;;;16.30;99.90;;;;;;5053225;28;20032;-65
2021/06/25 07:03:55;;;;;;;2.55;1.90;;;16.20;99.90;;;;;;5052254;28;20036;-65
2021/06/25 07:06:20;;;;;;;2.45;2.10;;;16.20;99.90;;;;;;5052272;28;20033;-65
2021/06/25 07:08:46;;;;;;;3.50;1.90;;;16.10;99.90;;;;;;5047408;28;20489;-65
2021/06/25 07:11:12;;;;;;;2.95;2.15;;;16.10;99.90;;;;;;5042770;28;20033;-65
2021/06/25 07:13:38;;;;;;;2.17;2.05;;;16.10;99.90;;;;;;5050028;28;20025;-65
2021/06/25 07:16:05;;;;;;;2.00;1.90;;;16.20;99.90;;;;;;5043815;28;20631;-65
2021/06/25 07:18:31;;;;;;;1.52;1.42;;;16.20;99.90;;;;;;5051056;28;20124;-65
2021/06/25 07:20:57;;;;;;;2.10;2.00;;;16.20;99.90;;;;;;5051018;28;20095;-65
2021/06/25 07:23:23;;;;;;;3.45;2.20;;;16.20;99.90;;;;;;5051493;28;20091;-66
2021/06/25 07:25:48;;;;;;;2.55;2.20;;;16.30;99.90;;;;;;5050511;28;20478;-66
2021/06/25 07:28:14;;;;;;;4.90;2.60;;;16.20;99.90;;;;;;5051535;28;20537;-66
2021/06/25 07:30:41;;;;;;;3.95;2.65;;;16.20;99.90;;;;;;5053888;28;20100;-66
2021/06/25 07:33:07;;;;;;;4.15;2.75;;;16.10;99.90;;;;;;5052428;28;20026;-66
2021/06/25 07:35:32;;;;;;;4.07;3.65;;;16.10;99.90;;;;;;5052072;28;20128;-66
2021/06/25 07:37:58;;;;;;;3.50;3.15;;;16.10;99.90;;;;;;5050565;28;20029;-66
2021/06/25 07:40:24;;;;;;;4.28;3.63;;;16.10;99.90;;;;;;5052049;28;20082;-66
2021/06/25 07:42:50;;;;;;;5.82;4.03;;;16.20;99.90;;;;;;5052613;28;20032;-66
2021/06/25 07:45:16;;;;;;;5.60;3.92;;;16.20;99.90;;;;;;5050979;28;20386;-66
2021/06/25 07:47:44;;;;;;;7.65;4.60;;;16.20;99.90;;;;;;5051179;28;20036;-65
2021/06/25 07:50:16;;;;;;;6.40;3.97;;;16.30;99.90;;;;;;5051197;28;20047;-66
2021/06/25 07:52:43;;;;;;;4.53;3.92;;;16.30;99.90;;;;;;5052173;28;20490;-66
2021/06/25 07:55:12;;;;;;;4.35;3.80;;;16.40;99.90;;;;;;5051246;28;20498;-66
2021/06/25 07:57:38;;;;;;;5.70;4.03;;;16.40;99.90;;;;;;5052026;28;20040;-66
2021/06/25 08:00:09;;;;;;;4.05;3.63;;;16.50;99.90;;;;;;5051154;28;20077;-66
2021/06/25 08:02:35;;;;;;;3.22;2.92;;;16.60;99.90;;;;;;5052297;28;20025;-66
2021/06/25 08:05:00;;;;;;;3.53;3.20;;;16.70;99.90;;;;;;5051595;28;20028;-66
2021/06/25 08:07:26;;;;;;;3.97;3.15;;;16.80;99.90;;;;;;5051664;28;20364;-66
2021/06/25 08:09:52;;;;;;;5.75;3.88;;;16.90;99.90;;;;;;5051166;28;20368;-66
2021/06/25 08:12:17;;;;;;;3.55;3.25;;;17.00;99.90;;;;;;5051388;28;20025;-66
2021/06/25 08:14:43;;;;;;;6.05;3.60;;;17.20;99.90;;;;;;5051710;28;20055;-66
2021/06/25 08:17:09;;;;;;;4.45;4.05;;;17.30;99.90;;;;;;5050264;28;20033;-66
2021/06/25 08:19:35;;;;;;;4.35;3.33;;;17.50;99.90;;;;;;5051341;28;20033;-66
2021/06/25 08:22:02;;;;;;;3.75;3.17;;;17.60;99.90;;;;;;5051544;28;20021;-66
2021/06/25 08:24:27;;;;;;;3.08;2.78;;;17.80;99.90;;;;;;5043081;28;20037;-66
2021/06/25 08:26:54;;;;;;;4.95;3.47;;;18.00;99.90;;;;;;5050303;28;20044;-66
2021/06/25 08:29:20;;;;;;;3.35;2.97;;;18.00;99.90;;;;;;5050667;28;20060;-66
2021/06/25 08:31:47;;;;;;;5.38;2.65;;;18.10;99.90;;;;;;5051211;28;20425;-66
2021/06/25 08:34:13;;;;;;;6.30;3.22;;;18.10;99.90;;;;;;5050880;28;20119;-66
2021/06/25 08:36:39;;;;;;;3.10;2.90;;;18.20;99.90;;;;;;5051213;28;20120;-66
2021/06/25 08:39:06;;;;;;;3.72;3.13;;;18.20;99.90;;;;;;5050303;28;20033;-67
2021/06/25 08:41:37;;;;;;;3.38;3.08;;;18.10;99.90;;;;;;5050297;28;20438;-67
2021/06/25 08:44:04;;;;;;;3.90;3.35;;;18.00;99.90;;;;;;5052076;28;20132;-67
2021/06/25 08:46:33;;;;;;;4.68;3.35;;;17.90;99.90;;;;;;5051243;28;20033;-65
2021/06/25 08:49:04;;;;;;;4.93;3.23;;;17.70;99.90;;;;;;5052409;28;20028;-65
2021/06/25 08:51:34;;;;;;;3.30;2.90;;;17.40;99.90;;;;;;5051547;28;20264;-65
2021/06/25 08:54:00;;;;;;;4.45;4.05;;;17.10;99.90;;;;;;5051619;28;20105;-65
2021/06/25 08:56:31;;;;;;;4.20;3.80;;;17.00;99.90;;;;;;5050897;28;20032;-66
2021/06/25 08:58:57;;;;;;;8.10;3.10;;;16.90;99.90;;;;;;5051335;28;20039;-66
2021/06/25 09:01:24;;;;;;;4.10;3.70;;;16.90;99.90;;;;;;5050901;28;20482;-66
2021/06/25 09:03:53;;;;;;;3.15;2.95;;;16.90;99.90;;;;;;5051229;28;20021;-66
2021/06/25 09:06:19;;;;;;;5.32;3.65;;;16.90;99.90;;;;;;5051151;28;20520;-66
2021/06/25 09:08:45;;;;;;;3.78;3.40;;;17.00;99.90;;;;;;5051336;28;20462;-66
2021/06/25 09:11:25;;;;;;;3.55;3.25;;;17.10;99.90;;;;;;5049827;28;20044;-66
2021/06/25 09:14:01;;;;;;;3.53;3.22;;;17.10;99.90;;;;;;5051470;28;20433;-65
2021/06/25 09:16:31;;;;;;;4.72;4.25;;;17.00;99.90;;;;;;5050558;28;20857;-66
2021/06/25 09:19:00;;;;;;;;;;;17.00;99.90;;;;;;5052440;28;20526;-65
2021/06/25 09:21:27;;;;;;;4.80;4.20;;;17.00;99.90;;;;;;5050640;28;19909;-66
2021/06/25 09:23:53;;;;;;;4.40;3.92;;;16.90;99.90;;;;;;5051751;28;20025;-66
2021/06/25 09:26:21;;;;;;;4.63;4.22;;;17.00;99.90;;;;;;5050788;28;20044;-65
2021/06/25 09:28:48;;;;;;;5.43;4.22;;;17.00;99.90;;;;;;5051631;28;20033;-66
2021/06/25 09:31:20;;;;;;;5.07;4.57;;;16.90;99.90;;;;;;5050360;28;20048;-66
2021/06/25 09:33:52;;;;;;;3.95;3.65;;;17.00;99.90;;;;;;5051573;28;20025;-65
2021/06/25 09:36:21;;;;;;;4.85;4.35;;;16.90;99.90;;;;;;5050756;28;20040;-65
2021/06/25 09:38:54;;;;;;;4.95;4.10;;;16.90;99.90;;;;;;5050742;28;20025;-66
2021/06/25 09:41:21;;;;;;;4.68;4.28;;;16.90;99.90;;;;;;5050383;28;20100;-66
2021/06/25 09:44:00;;;;;;;4.18;3.78;;;16.80;99.90;;;;;;5051449;28;20021;-66
2021/06/25 09:46:37;;;;;;;6.73;4.33;;;16.80;99.90;;;;;;5048541;28;20044;-66
2021/06/25 09:49:04;;;;;;;5.38;4.43;;;16.70;99.90;;;;;;5051345;28;20264;-65
2021/06/25 09:51:30;;;;;;;4.85;4.45;;;16.80;99.90;;;;;;5050341;28;20467;-66
2021/06/25 09:54:11;;;;;;;4.82;4.35;;;16.80;99.90;;;;;;5048119;28;20544;-66
2021/06/25 09:56:42;;;;;;;6.18;4.53;;;16.70;99.90;;;;;;5052491;28;20033;-66
2021/06/25 10:02:29;;;;;;;6.25;4.80;;;16.80;99.90;;;;;;5067987;28;20119;-66
2021/06/25 10:04:57;;;;;;;6.20;5.28;;;16.80;99.90;;;;;;5069004;28;20062;-66
2021/06/25 10:07:28;;;;;;;4.97;4.47;;;16.80;99.90;;;;;;5066135;28;20086;-66
2021/06/25 10:09:57;;;;;;;6.15;5.45;;;16.80;99.90;;;;;;5050662;28;20033;-66
2021/06/25 10:12:23;;;;;;;6.68;6.03;;;16.80;99.90;;;;;;5052258;28;20032;-66
2021/06/25 10:14:51;;;;;;;7.03;5.85;;;16.80;99.90;;;;;;5052962;28;20103;-66
2021/06/25 10:17:17;;;;;;;7.30;6.60;;;16.70;99.90;;;;;;5051693;28;20037;-66
2021/06/25 10:19:47;;;;;;;8.63;7.68;;;16.70;99.90;;;;;;5052824;28;20060;-66
2021/06/25 10:22:14;;;;;;;;;;;16.60;99.90;;;;;;5052527;28;20477;-66
2021/06/25 10:24:44;;;;;;;7.75;6.65;;;16.70;99.90;;;;;;5052609;28;19909;-66
2021/06/25 10:27:11;;;;;;;7.45;6.60;;;16.70;99.90;;;;;;5052720;28;20041;-66
2021/06/25 10:29:37;;;;;;;8.48;7.63;;;16.70;99.90;;;;;;5052718;28;20108;-66
2021/06/25 10:32:08;;;;;;;9.10;8.10;;;16.70;99.90;;;;;;5052740;28;20028;-66
2021/06/25 10:34:34;;;;;;;9.48;7.78;;;16.70;99.90;;;;;;5054238;28;20497;-66
2021/06/25 10:37:02;;;;;;;10.07;8.63;;;16.70;99.90;;;;;;5054881;28;20029;-66
2021/06/25 10:39:32;;;;;;;10.35;9.15;;;16.80;99.90;;;;;;5053789;28;20036;-66
2021/06/25 10:42:00;;;;;;;9.88;8.80;;;16.90;99.90;;;;;;5054824;28;20481;-67
2021/06/25 10:44:57;;;;;;;10.27;9.20;;;17.10;99.90;;;;;;5054150;28;20029;-66
2021/06/25 10:47:27;;;;;;;9.85;8.88;;;17.10;99.90;;;;;;5053121;28;20075;-67
2021/06/25 10:49:59;;;;;;;9.88;8.88;;;17.20;99.90;;;;;;5054774;28;20036;-66
2021/06/25 10:52:36;;;;;;;10.82;9.73;;;17.10;99.90;;;;;;5053966;28;20033;-66
2021/06/25 10:55:09;;;;;;;12.15;9.45;;;17.10;99.90;;;;;;5054600;28;20094;-66
2021/06/25 10:57:51;;;;;;;10.77;9.68;;;17.00;99.90;;;;;;5053841;28;20041;-66
2021/06/25 11:00:50;;;;;;;14.63;10.52;;;16.90;99.90;;;;;;5053686;28;20405;-66
2021/06/25 11:03:36;;;;;;;14.13;11.18;;;16.90;99.90;;;;;;5053859;28;20032;-66
2021/06/25 11:06:06;;;;;;;15.13;10.60;;;16.80;99.90;;;;;;5054285;28;20063;-66
2021/06/25 11:08:32;;;;;;;12.15;10.85;;;16.90;99.90;;;;;;5053260;28;20025;-66
2021/06/25 11:10:59;;;;;;;12.40;11.10;;;17.00;99.90;;;;;;5053778;28;20120;-66
2021/06/25 11:13:29;;;;;;;12.23;10.48;;;17.10;99.90;;;;;;5053591;28;20108;-66
2021/06/25 11:16:04;;;;;;;12.25;10.80;;;17.20;99.90;;;;;;5053850;28;20029;-66
2021/06/25 11:18:32;;;;;;;12.38;10.23;;;17.40;99.90;;;;;;5053680;28;20083;-67
2021/06/25 11:20:58;;;;;;;13.25;11.05;;;17.50;99.90;;;;;;5053596;28;20024;-66
2021/06/25 11:23:40;;;;;;;16.77;12.43;;;17.70;99.90;;;;;;5053486;28;20036;-66
2021/06/25 11:26:23;;;;;;;12.88;10.73;;;17.90;99.90;;;;;;5053980;28;20037;-67
2021/06/25 11:28:52;;;;;;;14.75;12.13;;;18.20;99.90;;;;;;5053931;28;20047;-66
2021/06/25 11:31:29;;;;;;;11.88;10.55;;;18.30;99.90;;;;;;5053482;28;20025;-66
2021/06/25 11:33:57;;;;;;;11.93;10.18;;;18.40;99.90;;;;;;5054102;28;20033;-66
2021/06/25 11:36:26;;;;;;;11.50;10.13;;;18.50;99.90;;;;;;5053232;28;20029;-66
2021/06/25 11:39:19;;;;;;;11.77;9.95;;;18.50;99.90;;;;;;5053033;28;20352;-67
2021/06/25 11:41:48;;;;;;;12.32;10.73;;;18.60;99.90;;;;;;5053830;28;20025;-66
2021/06/25 11:44:26;;;;;;;15.18;10.25;;;18.70;99.90;;;;;;5052413;28;20029;-67
2021/06/25 11:47:00;;;;;;;15.13;11.82;;;18.70;99.90;;;;;;5053325;28;20056;-67
2021/06/25 11:49:42;;;;;;;14.23;12.15;;;18.80;99.90;;;;;;5053011;28;20029;-66
2021/06/25 11:52:26;;;;;;;14.68;12.80;;;18.90;99.90;;;;;;5053410;28;20029;-66
2021/06/25 11:54:52;;;;;;;18.98;13.88;;;18.90;99.90;;;;;;5052666;28;20076;-66
2021/06/25 11:57:26;;;;;;;15.52;12.48;;;19.00;99.90;;;;;;5053497;28;20463;-66
2021/06/25 12:00:01;;;;;;;14.30;11.43;;;19.10;99.90;;;;;;5052133;28;20035;-66
2021/06/25 12:02:37;;;;;;;13.32;11.40;;;19.10;99.90;;;;;;5052809;28;20366;-66
2021/06/25 12:05:04;;;;;;;12.88;10.60;;;19.30;99.90;;;;;;5053255;28;20033;-66
2021/06/25 12:07:29;;;;;;;12.40;11.07;;;19.50;99.90;;;;;;5052606;28;20377;-66
2021/06/25 12:09:55;;;;;;;12.25;10.95;;;19.70;99.90;;;;;;5052733;28;20024;-66
2021/06/25 12:12:30;;;;;;;12.25;10.90;;;19.90;99.90;;;;;;5053185;28;20025;-66
2021/06/25 12:15:00;;;;;;;10.30;9.30;;;20.10;99.90;;;;;;5052985;28;20033;-66
2021/06/25 12:17:58;;;;;;;12.60;10.10;;;20.20;99.90;;;;;;5051942;28;20029;-66
2021/06/25 12:20:29;;;;;;;13.20;9.10;;;20.10;99.90;;;;;;5052429;28;20033;-66
2021/06/25 12:23:06;;;;;;;9.43;8.45;;;20.00;99.90;;;;;;5052417;28;20446;-66
2021/06/25 12:25:35;;;;;;;8.70;7.20;;;19.90;99.90;;;;;;5051983;28;20486;-66
2021/06/25 12:28:15;;;;;;;7.05;6.45;;;19.80;99.90;;;;;;5052909;28;20032;-66
2021/06/25 12:30:46;;;;;;;6.00;5.50;;;19.70;99.90;;;;;;5052233;28;20032;-66
2021/06/25 12:33:14;;;;;;;7.57;6.80;;;19.80;99.90;;;;;;5051937;28;20029;-66
2021/06/25 12:35:45;;;;;;;6.28;5.75;;;20.00;99.90;;;;;;5051749;28;20112;-66
2021/06/25 12:38:13;;;;;;;6.90;6.13;;;20.20;99.90;;;;;;5052470;28;20029;-66
2021/06/25 12:40:46;;;;;;;7.00;5.57;;;20.50;99.90;;;;;;5051737;28;20060;-66
2021/06/25 12:43:17;;;;;;;5.50;4.97;;;20.60;97.90;;;;;;5052627;28;20025;-66
2021/06/25 12:45:49;;;;;;;8.00;4.55;;;20.60;98.80;;;;;;5051432;28;20442;-66
2021/06/25 12:48:18;;;;;;;4.75;4.25;;;20.60;98.80;;;;;;5052680;28;20025;-66
2021/06/25 12:50:45;;;;;;;4.10;3.80;;;20.50;97.10;;;;;;5052074;28;20056;-66
2021/06/25 12:53:12;;;;;;;4.90;4.40;;;20.40;98.10;;;;;;5052387;28;20062;-66
2021/06/25 12:55:38;;;;;;;4.80;4.40;;;20.40;97.60;;;;;;5051780;28;20068;-66
2021/06/25 12:58:05;;;;;;;6.07;4.75;;;20.40;98.50;;;;;;5052511;28;20033;-66
2021/06/25 13:00:31;;;;;;;5.22;4.72;;;20.60;97.50;;;;;;5051625;28;20055;-66
2021/06/25 13:02:57;;;;;;;5.38;4.88;;;20.80;96.30;;;;;;5052080;28;20068;-66
2021/06/25 13:05:33;;;;;;;5.13;4.50;;;20.90;96.50;;;;;;5052241;28;20033;-66